sensor_id;sensor_type;location;lat;lon;timestamp;temperature;humidity
47825;DHT22;33589;48.242;14.676;2023-06-14T00:00:33;21.40;68.40
47825;DHT22;33589;48.242;14.676;2023-06-14T00:03:00;21.40;68.70
47825;DHT22;33589;48.242;14.676;2023-06-14T00:05:26;21.50;69.20
47825;DHT22;33589;48.242;14.676;2023-06-14T00:07:51;21.40;68.60
47825;DHT22;33589;48.242;14.676;2023-06-14T00:10:19;21.30;68.80
47825;DHT22;33589;48.242;14.676;2023-06-14T00:12:45;21.40;69.10
47825;DHT22;33589;48.242;14.676;2023-06-14T00:15:10;21.30;69.00
47825;DHT22;33589;48.242;14.676;2023-06-14T00:17:36;21.30;68.30
47825;DHT22;33589;48.242;14.676;2023-06-14T00:20:04;21.20;68.40
47825;DHT22;33589;48.242;14.676;2023-06-14T00:22:33;21.00;69.30
47825;DHT22;33589;48.242;14.676;2023-06-14T00:24:59;20.90;69.30
47825;DHT22;33589;48.242;14.676;2023-06-14T00:27:25;20.90;69.70
47825;DHT22;33589;48.242;14.676;2023-06-14T00:29:51;20.80;69.50
47825;DHT22;33589;48.242;14.676;2023-06-14T00:32:18;20.80;69.40
47825;DHT22;33589;48.242;14.676;2023-06-14T00:34:44;20.80;69.40
47825;DHT22;33589;48.242;14.676;2023-06-14T00:37:09;20.80;69.30
47825;DHT22;33589;48.242;14.676;2023-06-14T00:39:35;20.70;69.30
47825;DHT22;33589;48.242;14.676;2023-06-14T00:42:01;20.70;68.70
47825;DHT22;33589;48.242;14.676;2023-06-14T00:44:27;20.70;68.70
47825;DHT22;33589;48.242;14.676;2023-06-14T00:46:52;20.70;69.10
47825;DHT22;33589;48.242;14.676;2023-06-14T00:49:19;20.70;68.70
47825;DHT22;33589;48.242;14.676;2023-06-14T00:51:45;20.50;68.10
47825;DHT22;33589;48.242;14.676;2023-06-14T00:54:11;20.50;67.40
47825;DHT22;33589;48.242;14.676;2023-06-14T00:56:37;20.50;67.90
47825;DHT22;33589;48.242;14.676;2023-06-14T00:59:03;20.50;67.90
47825;DHT22;33589;48.242;14.676;2023-06-14T01:01:30;20.70;67.40
47825;DHT22;33589;48.242;14.676;2023-06-14T01:04:00;20.50;66.80
47825;DHT22;33589;48.242;14.676;2023-06-14T01:06:45;20.50;66.30
47825;DHT22;33589;48.242;14.676;2023-06-14T01:09:48;20.60;66.40
47825;DHT22;33589;48.242;14.676;2023-06-14T01:14:47;20.40;67.20
47825;DHT22;33589;48.242;14.676;2023-06-14T01:17:14;20.40;67.20
47825;DHT22;33589;48.242;14.676;2023-06-14T01:19:43;20.30;66.80
47825;DHT22;33589;48.242;14.676;2023-06-14T01:22:10;20.20;66.50
47825;DHT22;33589;48.242;14.676;2023-06-14T01:24:36;20.10;66.40
47825;DHT22;33589;48.242;14.676;2023-06-14T01:27:02;20.10;66.70
47825;DHT22;33589;48.242;14.676;2023-06-14T01:29:29;20.00;66.80
47825;DHT22;33589;48.242;14.676;2023-06-14T01:31:59;19.80;66.40
47825;DHT22;33589;48.242;14.676;2023-06-14T01:34:29;19.80;66.40
47825;DHT22;33589;48.242;14.676;2023-06-14T01:36:55;19.80;65.90
47825;DHT22;33589;48.242;14.676;2023-06-14T01:39:22;19.80;66.00
47825;DHT22;33589;48.242;14.676;2023-06-14T01:41:49;19.80;64.40
47825;DHT22;33589;48.242;14.676;2023-06-14T01:44:17;19.80;64.60
47825;DHT22;33589;48.242;14.676;2023-06-14T01:46:45;19.70;63.80
47825;DHT22;33589;48.242;14.676;2023-06-14T01:49:11;19.70;63.40
47825;DHT22;33589;48.242;14.676;2023-06-14T01:51:37;19.40;61.70
47825;DHT22;33589;48.242;14.676;2023-06-14T01:54:02;19.40;60.60
47825;DHT22;33589;48.242;14.676;2023-06-14T01:56:28;19.30;60.70
47825;DHT22;33589;48.242;14.676;2023-06-14T01:58:54;19.20;59.40
47825;DHT22;33589;48.242;14.676;2023-06-14T02:01:20;19.20;57.60
47825;DHT22;33589;48.242;14.676;2023-06-14T02:03:47;19.10;58.30
47825;DHT22;33589;48.242;14.676;2023-06-14T02:06:15;19.00;57.40
47825;DHT22;33589;48.242;14.676;2023-06-14T02:08:43;19.00;57.20
47825;DHT22;33589;48.242;14.676;2023-06-14T02:11:09;19.00;56.60
47825;DHT22;33589;48.242;14.676;2023-06-14T02:13:35;19.00;56.30
47825;DHT22;33589;48.242;14.676;2023-06-14T02:16:01;19.00;57.00
47825;DHT22;33589;48.242;14.676;2023-06-14T02:18:28;19.00;56.90
47825;DHT22;33589;48.242;14.676;2023-06-14T02:20:55;19.00;56.40
47825;DHT22;33589;48.242;14.676;2023-06-14T02:23:21;18.90;57.40
47825;DHT22;33589;48.242;14.676;2023-06-14T02:25:46;18.80;57.50
47825;DHT22;33589;48.242;14.676;2023-06-14T02:28:12;18.80;58.20
47825;DHT22;33589;48.242;14.676;2023-06-14T02:30:38;18.80;57.90
47825;DHT22;33589;48.242;14.676;2023-06-14T02:33:04;18.70;58.10
47825;DHT22;33589;48.242;14.676;2023-06-14T02:35:31;18.60;57.60
47825;DHT22;33589;48.242;14.676;2023-06-14T02:37:57;18.60;58.00
47825;DHT22;33589;48.242;14.676;2023-06-14T02:40:23;18.50;57.10
47825;DHT22;33589;48.242;14.676;2023-06-14T02:42:49;18.40;56.70
47825;DHT22;33589;48.242;14.676;2023-06-14T02:45:16;18.40;57.40
47825;DHT22;33589;48.242;14.676;2023-06-14T02:47:42;18.20;57.60
47825;DHT22;33589;48.242;14.676;2023-06-14T02:50:08;18.40;57.70
47825;DHT22;33589;48.242;14.676;2023-06-14T02:52:34;18.20;56.50
47825;DHT22;33589;48.242;14.676;2023-06-14T02:54:59;18.10;57.00
47825;DHT22;33589;48.242;14.676;2023-06-14T02:57:25;18.00;57.40
47825;DHT22;33589;48.242;14.676;2023-06-14T02:59:51;17.90;57.90
47825;DHT22;33589;48.242;14.676;2023-06-14T03:02:18;17.90;58.00
47825;DHT22;33589;48.242;14.676;2023-06-14T03:04:44;17.90;57.30
47825;DHT22;33589;48.242;14.676;2023-06-14T03:07:14;17.80;57.20
47825;DHT22;33589;48.242;14.676;2023-06-14T03:09:46;17.90;57.80
47825;DHT22;33589;48.242;14.676;2023-06-14T03:12:12;17.80;57.30
47825;DHT22;33589;48.242;14.676;2023-06-14T03:14:38;17.80;57.20
47825;DHT22;33589;48.242;14.676;2023-06-14T03:17:05;17.70;57.00
47825;DHT22;33589;48.242;14.676;2023-06-14T03:19:34;17.70;57.00
47825;DHT22;33589;48.242;14.676;2023-06-14T03:22:00;17.70;56.80
47825;DHT22;33589;48.242;14.676;2023-06-14T03:24:28;17.60;57.00
47825;DHT22;33589;48.242;14.676;2023-06-14T03:26:55;17.60;56.40
47825;DHT22;33589;48.242;14.676;2023-06-14T03:29:22;17.60;56.80
47825;DHT22;33589;48.242;14.676;2023-06-14T03:31:59;17.50;56.90
47825;DHT22;33589;48.242;14.676;2023-06-14T03:34:28;17.40;56.50
47825;DHT22;33589;48.242;14.676;2023-06-14T03:36:53;17.40;56.60
47825;DHT22;33589;48.242;14.676;2023-06-14T03:39:20;17.40;57.30
47825;DHT22;33589;48.242;14.676;2023-06-14T03:41:46;17.30;57.30
47825;DHT22;33589;48.242;14.676;2023-06-14T03:44:15;17.30;57.30
47825;DHT22;33589;48.242;14.676;2023-06-14T03:46:41;17.30;57.20
47825;DHT22;33589;48.242;14.676;2023-06-14T03:49:07;17.30;57.20
47825;DHT22;33589;48.242;14.676;2023-06-14T03:51:33;17.30;57.10
47825;DHT22;33589;48.242;14.676;2023-06-14T03:54:01;17.30;57.10
47825;DHT22;33589;48.242;14.676;2023-06-14T03:56:26;17.30;56.60
47825;DHT22;33589;48.242;14.676;2023-06-14T03:58:52;17.30;56.20
47825;DHT22;33589;48.242;14.676;2023-06-14T04:01:21;17.30;56.60
47825;DHT22;33589;48.242;14.676;2023-06-14T04:03:57;17.30;56.80
47825;DHT22;33589;48.242;14.676;2023-06-14T04:06:24;17.30;56.60
47825;DHT22;33589;48.242;14.676;2023-06-14T04:08:59;17.30;56.30
47825;DHT22;33589;48.242;14.676;2023-06-14T04:11:29;17.20;56.30
47825;DHT22;33589;48.242;14.676;2023-06-14T04:13:54;17.30;56.60
47825;DHT22;33589;48.242;14.676;2023-06-14T04:16:22;17.30;56.50
47825;DHT22;33589;48.242;14.676;2023-06-14T04:18:48;17.30;56.40
47825;DHT22;33589;48.242;14.676;2023-06-14T04:21:17;17.30;56.00
47825;DHT22;33589;48.242;14.676;2023-06-14T04:23:42;17.40;56.00
47825;DHT22;33589;48.242;14.676;2023-06-14T04:26:10;17.40;56.00
47825;DHT22;33589;48.242;14.676;2023-06-14T04:28:36;17.40;55.60
47825;DHT22;33589;48.242;14.676;2023-06-14T04:31:09;17.40;56.00
47825;DHT22;33589;48.242;14.676;2023-06-14T04:33:36;17.50;55.60
47825;DHT22;33589;48.242;14.676;2023-06-14T04:36:12;17.70;54.30
47825;DHT22;33589;48.242;14.676;2023-06-14T04:38:39;17.80;54.00
47825;DHT22;33589;48.242;14.676;2023-06-14T04:41:05;17.90;55.30
47825;DHT22;33589;48.242;14.676;2023-06-14T04:43:31;18.00;55.20
47825;DHT22;33589;48.242;14.676;2023-06-14T04:46:07;18.10;55.40
47825;DHT22;33589;48.242;14.676;2023-06-14T04:48:38;18.10;56.30
47825;DHT22;33589;48.242;14.676;2023-06-14T04:51:07;18.10;55.60
47825;DHT22;33589;48.242;14.676;2023-06-14T04:53:32;18.10;55.90
47825;DHT22;33589;48.242;14.676;2023-06-14T04:55:58;18.20;56.10
47825;DHT22;33589;48.242;14.676;2023-06-14T04:58:27;18.20;56.70
47825;DHT22;33589;48.242;14.676;2023-06-14T05:00:54;18.30;55.10
47825;DHT22;33589;48.242;14.676;2023-06-14T05:03:21;18.40;53.70
47825;DHT22;33589;48.242;14.676;2023-06-14T05:05:47;18.40;53.10
47825;DHT22;33589;48.242;14.676;2023-06-14T05:08:13;18.50;53.90
47825;DHT22;33589;48.242;14.676;2023-06-14T05:10:39;18.50;55.00
47825;DHT22;33589;48.242;14.676;2023-06-14T05:13:04;18.60;55.20
47825;DHT22;33589;48.242;14.676;2023-06-14T05:15:31;18.60;53.70
47825;DHT22;33589;48.242;14.676;2023-06-14T05:17:56;18.70;53.90
47825;DHT22;33589;48.242;14.676;2023-06-14T05:20:23;18.80;53.30
47825;DHT22;33589;48.242;14.676;2023-06-14T05:22:54;18.90;52.90
47825;DHT22;33589;48.242;14.676;2023-06-14T05:25:22;19.10;54.20
47825;DHT22;33589;48.242;14.676;2023-06-14T05:27:48;19.20;55.00
47825;DHT22;33589;48.242;14.676;2023-06-14T05:30:15;19.20;54.00
47825;DHT22;33589;48.242;14.676;2023-06-14T05:32:41;19.30;55.60
47825;DHT22;33589;48.242;14.676;2023-06-14T05:35:07;19.40;55.70
47825;DHT22;33589;48.242;14.676;2023-06-14T05:37:33;19.50;54.30
47825;DHT22;33589;48.242;14.676;2023-06-14T05:39:59;19.70;54.20
47825;DHT22;33589;48.242;14.676;2023-06-14T05:42:24;19.80;54.50
47825;DHT22;33589;48.242;14.676;2023-06-14T05:44:50;20.00;53.40
47825;DHT22;33589;48.242;14.676;2023-06-14T05:47:16;20.20;52.50
47825;DHT22;33589;48.242;14.676;2023-06-14T05:49:41;20.40;51.20
47825;DHT22;33589;48.242;14.676;2023-06-14T05:52:08;20.50;49.90
47825;DHT22;33589;48.242;14.676;2023-06-14T05:54:33;20.60;49.90
47825;DHT22;33589;48.242;14.676;2023-06-14T05:56:59;20.70;48.60
47825;DHT22;33589;48.242;14.676;2023-06-14T05:59:27;20.90;49.00
47825;DHT22;33589;48.242;14.676;2023-06-14T06:01:53;21.00;50.20
47825;DHT22;33589;48.242;14.676;2023-06-14T06:04:18;21.20;50.40
47825;DHT22;33589;48.242;14.676;2023-06-14T06:06:45;21.40;51.00
47825;DHT22;33589;48.242;14.676;2023-06-14T06:09:12;21.50;48.80
47825;DHT22;33589;48.242;14.676;2023-06-14T06:11:39;21.60;49.50
47825;DHT22;33589;48.242;14.676;2023-06-14T06:14:05;21.80;49.10
47825;DHT22;33589;48.242;14.676;2023-06-14T06:16:31;21.90;48.90
47825;DHT22;33589;48.242;14.676;2023-06-14T06:18:56;22.10;49.20
47825;DHT22;33589;48.242;14.676;2023-06-14T06:21:22;22.30;49.50
47825;DHT22;33589;48.242;14.676;2023-06-14T06:23:48;22.60;48.70
47825;DHT22;33589;48.242;14.676;2023-06-14T06:26:13;22.80;47.70
47825;DHT22;33589;48.242;14.676;2023-06-14T06:28:39;23.00;46.90
47825;DHT22;33589;48.242;14.676;2023-06-14T06:31:04;23.20;47.90
47825;DHT22;33589;48.242;14.676;2023-06-14T06:33:30;23.30;46.40
47825;DHT22;33589;48.242;14.676;2023-06-14T06:35:56;23.50;44.10
47825;DHT22;33589;48.242;14.676;2023-06-14T06:38:21;23.50;42.40
47825;DHT22;33589;48.242;14.676;2023-06-14T06:40:47;23.70;41.70
47825;DHT22;33589;48.242;14.676;2023-06-14T06:43:13;23.80;41.50
47825;DHT22;33589;48.242;14.676;2023-06-14T06:45:44;23.90;42.70
47825;DHT22;33589;48.242;14.676;2023-06-14T06:48:09;24.10;42.40
47825;DHT22;33589;48.242;14.676;2023-06-14T06:50:36;24.10;39.60
47825;DHT22;33589;48.242;14.676;2023-06-14T06:53:02;24.20;36.70
47825;DHT22;33589;48.242;14.676;2023-06-14T06:55:27;24.30;38.90
47825;DHT22;33589;48.242;14.676;2023-06-14T06:57:53;24.30;38.30
47825;DHT22;33589;48.242;14.676;2023-06-14T07:00:20;24.40;39.40
47825;DHT22;33589;48.242;14.676;2023-06-14T07:02:46;24.60;39.00
47825;DHT22;33589;48.242;14.676;2023-06-14T07:05:11;24.60;36.90
47825;DHT22;33589;48.242;14.676;2023-06-14T07:07:37;24.70;37.80
47825;DHT22;33589;48.242;14.676;2023-06-14T07:10:04;24.70;37.40
47825;DHT22;33589;48.242;14.676;2023-06-14T07:12:33;24.80;36.90
47825;DHT22;33589;48.242;14.676;2023-06-14T07:15:01;24.90;36.10
47825;DHT22;33589;48.242;14.676;2023-06-14T07:17:28;24.80;36.50
47825;DHT22;33589;48.242;14.676;2023-06-14T07:19:54;24.80;36.20
47825;DHT22;33589;48.242;14.676;2023-06-14T07:22:19;24.70;35.70
47825;DHT22;33589;48.242;14.676;2023-06-14T07:24:45;24.70;35.50
47825;DHT22;33589;48.242;14.676;2023-06-14T07:27:12;24.50;36.50
47825;DHT22;33589;48.242;14.676;2023-06-14T07:29:38;24.50;36.40
47825;DHT22;33589;48.242;14.676;2023-06-14T07:32:04;24.50;35.80
47825;DHT22;33589;48.242;14.676;2023-06-14T07:34:30;24.60;35.90
47825;DHT22;33589;48.242;14.676;2023-06-14T07:36:56;24.60;35.80
47825;DHT22;33589;48.242;14.676;2023-06-14T07:39:22;24.70;36.30
47825;DHT22;33589;48.242;14.676;2023-06-14T07:41:47;24.70;36.50
47825;DHT22;33589;48.242;14.676;2023-06-14T07:44:13;24.80;36.80
47825;DHT22;33589;48.242;14.676;2023-06-14T07:46:39;24.80;35.60
47825;DHT22;33589;48.242;14.676;2023-06-14T07:49:04;24.80;36.40
47825;DHT22;33589;48.242;14.676;2023-06-14T07:51:30;24.80;36.00
47825;DHT22;33589;48.242;14.676;2023-06-14T07:53:56;24.80;35.70
47825;DHT22;33589;48.242;14.676;2023-06-14T07:56:22;25.00;36.80
47825;DHT22;33589;48.242;14.676;2023-06-14T07:58:48;25.00;36.10
47825;DHT22;33589;48.242;14.676;2023-06-14T08:01:14;25.00;36.70
47825;DHT22;33589;48.242;14.676;2023-06-14T08:03:40;25.10;35.70
47825;DHT22;33589;48.242;14.676;2023-06-14T08:06:06;25.10;35.00
47825;DHT22;33589;48.242;14.676;2023-06-14T08:08:32;25.10;35.70
47825;DHT22;33589;48.242;14.676;2023-06-14T08:10:58;25.00;35.70
47825;DHT22;33589;48.242;14.676;2023-06-14T08:13:24;24.90;36.50
47825;DHT22;33589;48.242;14.676;2023-06-14T08:15:49;24.90;36.50
47825;DHT22;33589;48.242;14.676;2023-06-14T08:18:15;24.80;36.00
47825;DHT22;33589;48.242;14.676;2023-06-14T08:20:41;24.80;35.60
47825;DHT22;33589;48.242;14.676;2023-06-14T08:23:07;24.80;35.70
47825;DHT22;33589;48.242;14.676;2023-06-14T08:25:34;24.70;35.90
47825;DHT22;33589;48.242;14.676;2023-06-14T08:28:00;24.60;36.50
47825;DHT22;33589;48.242;14.676;2023-06-14T08:30:26;24.70;36.50
47825;DHT22;33589;48.242;14.676;2023-06-14T08:32:52;24.70;37.00
47825;DHT22;33589;48.242;14.676;2023-06-14T08:35:21;24.60;35.80
47825;DHT22;33589;48.242;14.676;2023-06-14T08:37:46;24.50;35.70
47825;DHT22;33589;48.242;14.676;2023-06-14T08:40:22;24.50;36.90
47825;DHT22;33589;48.242;14.676;2023-06-14T08:42:52;24.70;36.80
47825;DHT22;33589;48.242;14.676;2023-06-14T08:45:19;24.70;36.70
47825;DHT22;33589;48.242;14.676;2023-06-14T08:47:47;24.80;36.90
47825;DHT22;33589;48.242;14.676;2023-06-14T08:50:21;24.90;37.00
47825;DHT22;33589;48.242;14.676;2023-06-14T08:52:48;24.90;36.80
47825;DHT22;33589;48.242;14.676;2023-06-14T08:55:18;24.90;35.50
47825;DHT22;33589;48.242;14.676;2023-06-14T08:57:46;25.00;35.80
47825;DHT22;33589;48.242;14.676;2023-06-14T09:00:13;25.00;35.70
47825;DHT22;33589;48.242;14.676;2023-06-14T09:02:40;25.00;35.70
47825;DHT22;33589;48.242;14.676;2023-06-14T09:05:12;25.00;36.40
47825;DHT22;33589;48.242;14.676;2023-06-14T09:07:44;25.00;35.90
47825;DHT22;33589;48.242;14.676;2023-06-14T09:10:15;25.10;36.70
47825;DHT22;33589;48.242;14.676;2023-06-14T09:12:41;25.10;36.10
47825;DHT22;33589;48.242;14.676;2023-06-14T09:15:08;25.20;35.30
47825;DHT22;33589;48.242;14.676;2023-06-14T09:17:38;25.10;36.10
47825;DHT22;33589;48.242;14.676;2023-06-14T09:20:07;25.20;36.60
47825;DHT22;33589;48.242;14.676;2023-06-14T09:22:37;25.30;36.30
47825;DHT22;33589;48.242;14.676;2023-06-14T09:25:04;25.20;36.90
47825;DHT22;33589;48.242;14.676;2023-06-14T09:27:31;25.20;36.00
47825;DHT22;33589;48.242;14.676;2023-06-14T09:29:56;25.10;36.90
47825;DHT22;33589;48.242;14.676;2023-06-14T09:32:22;25.10;38.00
47825;DHT22;33589;48.242;14.676;2023-06-14T09:34:48;25.10;36.90
47825;DHT22;33589;48.242;14.676;2023-06-14T09:37:27;25.20;37.20
47825;DHT22;33589;48.242;14.676;2023-06-14T09:39:53;25.10;39.30
47825;DHT22;33589;48.242;14.676;2023-06-14T09:42:19;25.00;39.60
47825;DHT22;33589;48.242;14.676;2023-06-14T09:44:48;24.70;40.00
47825;DHT22;33589;48.242;14.676;2023-06-14T09:47:15;24.70;39.10
47825;DHT22;33589;48.242;14.676;2023-06-14T09:49:42;24.80;40.70
47825;DHT22;33589;48.242;14.676;2023-06-14T09:52:16;24.90;40.20
47825;DHT22;33589;48.242;14.676;2023-06-14T09:54:43;24.80;39.90
47825;DHT22;33589;48.242;14.676;2023-06-14T09:57:13;24.80;39.60
47825;DHT22;33589;48.242;14.676;2023-06-14T09:59:42;24.90;38.70
47825;DHT22;33589;48.242;14.676;2023-06-14T10:02:34;25.10;37.90
47825;DHT22;33589;48.242;14.676;2023-06-14T10:05:08;25.40;36.80
47825;DHT22;33589;48.242;14.676;2023-06-14T10:07:44;25.10;37.60
47825;DHT22;33589;48.242;14.676;2023-06-14T10:10:12;25.10;37.50
47825;DHT22;33589;48.242;14.676;2023-06-14T10:12:38;25.10;36.60
47825;DHT22;33589;48.242;14.676;2023-06-14T10:15:07;25.20;37.10
47825;DHT22;33589;48.242;14.676;2023-06-14T10:17:48;25.40;36.50
47825;DHT22;33589;48.242;14.676;2023-06-14T10:20:35;25.30;37.20
47825;DHT22;33589;48.242;14.676;2023-06-14T10:23:10;25.20;38.00
47825;DHT22;33589;48.242;14.676;2023-06-14T10:25:38;25.30;38.60
47825;DHT22;33589;48.242;14.676;2023-06-14T10:28:20;25.30;38.80
47825;DHT22;33589;48.242;14.676;2023-06-14T10:31:11;25.20;37.70
47825;DHT22;33589;48.242;14.676;2023-06-14T10:33:50;25.00;38.70
47825;DHT22;33589;48.242;14.676;2023-06-14T10:36:25;25.00;37.10
47825;DHT22;33589;48.242;14.676;2023-06-14T10:39:01;25.10;38.00
47825;DHT22;33589;48.242;14.676;2023-06-14T10:41:30;25.10;37.20
47825;DHT22;33589;48.242;14.676;2023-06-14T10:46:40;25.10;39.80
47825;DHT22;33589;48.242;14.676;2023-06-14T10:49:06;25.10;38.10
47825;DHT22;33589;48.242;14.676;2023-06-14T10:51:39;24.80;39.40
47825;DHT22;33589;48.242;14.676;2023-06-14T10:54:14;25.00;37.30
47825;DHT22;33589;48.242;14.676;2023-06-14T10:56:51;25.00;37.80
47825;DHT22;33589;48.242;14.676;2023-06-14T10:59:18;25.20;36.50
47825;DHT22;33589;48.242;14.676;2023-06-14T11:02:08;25.30;36.00
47825;DHT22;33589;48.242;14.676;2023-06-14T11:04:48;25.30;35.30
47825;DHT22;33589;48.242;14.676;2023-06-14T11:07:25;25.30;35.50
47825;DHT22;33589;48.242;14.676;2023-06-14T11:12:51;25.20;35.00
47825;DHT22;33589;48.242;14.676;2023-06-14T11:15:17;25.20;35.30
47825;DHT22;33589;48.242;14.676;2023-06-14T11:17:53;25.30;35.90
47825;DHT22;33589;48.242;14.676;2023-06-14T11:20:19;25.30;34.90
47825;DHT22;33589;48.242;14.676;2023-06-14T11:22:45;25.40;33.80
47825;DHT22;33589;48.242;14.676;2023-06-14T11:25:11;25.40;34.90
47825;DHT22;33589;48.242;14.676;2023-06-14T11:27:37;25.40;34.20
47825;DHT22;33589;48.242;14.676;2023-06-14T11:30:06;25.40;33.70
47825;DHT22;33589;48.242;14.676;2023-06-14T11:32:32;25.40;34.80
47825;DHT22;33589;48.242;14.676;2023-06-14T11:34:58;25.50;35.60
47825;DHT22;33589;48.242;14.676;2023-06-14T11:37:26;25.60;33.80
47825;DHT22;33589;48.242;14.676;2023-06-14T11:39:56;25.60;34.10
47825;DHT22;33589;48.242;14.676;2023-06-14T11:42:23;25.60;34.10
47825;DHT22;33589;48.242;14.676;2023-06-14T11:44:51;25.60;34.50
47825;DHT22;33589;48.242;14.676;2023-06-14T11:47:18;25.70;34.00
47825;DHT22;33589;48.242;14.676;2023-06-14T11:49:44;25.80;34.20
47825;DHT22;33589;48.242;14.676;2023-06-14T11:52:09;25.90;33.20
47825;DHT22;33589;48.242;14.676;2023-06-14T11:54:37;26.00;33.60
47825;DHT22;33589;48.242;14.676;2023-06-14T11:57:03;26.10;32.50
47825;DHT22;33589;48.242;14.676;2023-06-14T11:59:29;26.10;31.90
47825;DHT22;33589;48.242;14.676;2023-06-14T12:01:56;26.10;32.30
47825;DHT22;33589;48.242;14.676;2023-06-14T12:04:27;26.20;32.20
47825;DHT22;33589;48.242;14.676;2023-06-14T12:06:52;26.20;32.00
47825;DHT22;33589;48.242;14.676;2023-06-14T12:09:19;26.20;33.40
47825;DHT22;33589;48.242;14.676;2023-06-14T12:11:45;26.30;32.20
47825;DHT22;33589;48.242;14.676;2023-06-14T12:14:10;26.10;32.80
47825;DHT22;33589;48.242;14.676;2023-06-14T12:16:39;26.10;33.60
47825;DHT22;33589;48.242;14.676;2023-06-14T12:19:16;26.10;33.20
47825;DHT22;33589;48.242;14.676;2023-06-14T12:21:43;26.10;32.50
47825;DHT22;33589;48.242;14.676;2023-06-14T12:24:11;26.10;33.30
47825;DHT22;33589;48.242;14.676;2023-06-14T12:26:41;26.00;33.20
47825;DHT22;33589;48.242;14.676;2023-06-14T12:29:07;25.90;32.60
47825;DHT22;33589;48.242;14.676;2023-06-14T12:31:33;26.00;32.10
47825;DHT22;33589;48.242;14.676;2023-06-14T12:33:59;26.00;32.80
47825;DHT22;33589;48.242;14.676;2023-06-14T12:36:24;26.10;32.40
47825;DHT22;33589;48.242;14.676;2023-06-14T12:38:51;26.10;32.30
47825;DHT22;33589;48.242;14.676;2023-06-14T12:41:19;26.10;32.70
47825;DHT22;33589;48.242;14.676;2023-06-14T12:43:46;26.10;31.60
47825;DHT22;33589;48.242;14.676;2023-06-14T12:46:12;26.10;31.90
47825;DHT22;33589;48.242;14.676;2023-06-14T12:48:38;26.10;30.70
47825;DHT22;33589;48.242;14.676;2023-06-14T12:51:03;26.10;31.00
47825;DHT22;33589;48.242;14.676;2023-06-14T12:53:29;26.00;31.20
47825;DHT22;33589;48.242;14.676;2023-06-14T12:55:55;26.00;32.90
47825;DHT22;33589;48.242;14.676;2023-06-14T12:58:20;25.90;32.00
47825;DHT22;33589;48.242;14.676;2023-06-14T13:00:47;25.90;31.90
47825;DHT22;33589;48.242;14.676;2023-06-14T13:03:12;25.80;32.30
47825;DHT22;33589;48.242;14.676;2023-06-14T13:05:38;25.80;33.00
47825;DHT22;33589;48.242;14.676;2023-06-14T13:08:07;25.80;32.70
47825;DHT22;33589;48.242;14.676;2023-06-14T13:10:33;25.90;32.70
47825;DHT22;33589;48.242;14.676;2023-06-14T13:12:59;26.00;32.20
47825;DHT22;33589;48.242;14.676;2023-06-14T13:15:26;26.10;31.70
47825;DHT22;33589;48.242;14.676;2023-06-14T13:17:52;26.10;31.20
47825;DHT22;33589;48.242;14.676;2023-06-14T13:20:18;26.20;31.00
47825;DHT22;33589;48.242;14.676;2023-06-14T13:22:44;26.20;30.90
47825;DHT22;33589;48.242;14.676;2023-06-14T13:25:09;26.00;31.30
47825;DHT22;33589;48.242;14.676;2023-06-14T13:27:35;26.00;31.60
47825;DHT22;33589;48.242;14.676;2023-06-14T13:30:02;26.00;31.40
47825;DHT22;33589;48.242;14.676;2023-06-14T13:32:27;26.00;31.80
47825;DHT22;33589;48.242;14.676;2023-06-14T13:34:53;25.90;31.30
47825;DHT22;33589;48.242;14.676;2023-06-14T13:37:19;25.80;32.30
47825;DHT22;33589;48.242;14.676;2023-06-14T13:39:45;25.90;31.60
47825;DHT22;33589;48.242;14.676;2023-06-14T13:42:10;25.80;31.70
47825;DHT22;33589;48.242;14.676;2023-06-14T13:44:36;25.90;30.60
47825;DHT22;33589;48.242;14.676;2023-06-14T13:47:02;25.90;30.60
47825;DHT22;33589;48.242;14.676;2023-06-14T13:49:28;25.90;30.00
47825;DHT22;33589;48.242;14.676;2023-06-14T13:51:54;25.90;31.60
47825;DHT22;33589;48.242;14.676;2023-06-14T13:54:20;25.90;32.70
47825;DHT22;33589;48.242;14.676;2023-06-14T13:56:46;26.00;32.60
47825;DHT22;33589;48.242;14.676;2023-06-14T13:59:12;26.00;31.80
47825;DHT22;33589;48.242;14.676;2023-06-14T14:01:38;26.10;30.70
47825;DHT22;33589;48.242;14.676;2023-06-14T14:04:04;26.00;31.90
47825;DHT22;33589;48.242;14.676;2023-06-14T14:06:30;26.00;31.80
47825;DHT22;33589;48.242;14.676;2023-06-14T14:08:56;26.10;31.60
47825;DHT22;33589;48.242;14.676;2023-06-14T14:11:22;26.10;30.80
47825;DHT22;33589;48.242;14.676;2023-06-14T14:13:48;26.00;29.90
47825;DHT22;33589;48.242;14.676;2023-06-14T14:16:14;26.00;30.60
47825;DHT22;33589;48.242;14.676;2023-06-14T14:18:40;26.00;30.00
47825;DHT22;33589;48.242;14.676;2023-06-14T14:21:06;26.00;29.50
47825;DHT22;33589;48.242;14.676;2023-06-14T14:23:32;26.00;30.20
47825;DHT22;33589;48.242;14.676;2023-06-14T14:25:58;26.00;31.00
47825;DHT22;33589;48.242;14.676;2023-06-14T14:28:26;26.00;30.70
47825;DHT22;33589;48.242;14.676;2023-06-14T14:30:52;26.20;30.00
47825;DHT22;33589;48.242;14.676;2023-06-14T14:33:19;26.40;29.20
47825;DHT22;33589;48.242;14.676;2023-06-14T14:35:45;26.20;29.30
47825;DHT22;33589;48.242;14.676;2023-06-14T14:38:14;26.10;28.70
47825;DHT22;33589;48.242;14.676;2023-06-14T14:40:44;26.10;29.30
47825;DHT22;33589;48.242;14.676;2023-06-14T14:43:10;26.10;29.40
47825;DHT22;33589;48.242;14.676;2023-06-14T14:45:36;26.10;29.10
47825;DHT22;33589;48.242;14.676;2023-06-14T14:48:02;26.10;27.70
47825;DHT22;33589;48.242;14.676;2023-06-14T14:50:28;26.10;28.30
47825;DHT22;33589;48.242;14.676;2023-06-14T14:52:55;26.10;27.90
47825;DHT22;33589;48.242;14.676;2023-06-14T14:55:20;26.30;28.00
47825;DHT22;33589;48.242;14.676;2023-06-14T14:57:46;26.20;27.80
47825;DHT22;33589;48.242;14.676;2023-06-14T15:00:13;26.20;27.70
47825;DHT22;33589;48.242;14.676;2023-06-14T15:02:39;26.30;27.90
47825;DHT22;33589;48.242;14.676;2023-06-14T15:05:05;26.30;27.90
47825;DHT22;33589;48.242;14.676;2023-06-14T15:07:31;26.30;27.70
47825;DHT22;33589;48.242;14.676;2023-06-14T15:09:59;26.30;27.10
47825;DHT22;33589;48.242;14.676;2023-06-14T15:12:24;26.30;26.40
47825;DHT22;33589;48.242;14.676;2023-06-14T15:14:51;26.30;26.30
47825;DHT22;33589;48.242;14.676;2023-06-14T15:17:20;26.30;26.60
47825;DHT22;33589;48.242;14.676;2023-06-14T15:19:47;26.40;26.40
47825;DHT22;33589;48.242;14.676;2023-06-14T15:22:13;26.50;25.00
47825;DHT22;33589;48.242;14.676;2023-06-14T15:24:41;26.50;24.90